sensor_id;sensor_type;location;lat;lon;timestamp;temperature;humidity
8422;DHT22;4248;48.196;10.924;2022-12-05T00:00:33;3.50;72.30
8422;DHT22;4248;48.196;10.924;2022-12-05T00:03:03;3.50;72.30
8422;DHT22;4248;48.196;10.924;2022-12-05T00:05:29;3.40;71.20
8422;DHT22;4248;48.196;10.924;2022-12-05T00:07:54;3.40;72.30
8422;DHT22;4248;48.196;10.924;2022-12-05T00:10:20;3.50;72.40
8422;DHT22;4248;48.196;10.924;2022-12-05T00:12:46;3.50;72.40
8422;DHT22;4248;48.196;10.924;2022-12-05T00:15:12;3.40;71.20
8422;DHT22;4248;48.196;10.924;2022-12-05T00:17:39;3.50;72.40
8422;DHT22;4248;48.196;10.924;2022-12-05T00:20:06;3.50;72.40
8422;DHT22;4248;48.196;10.924;2022-12-05T00:22:35;3.50;72.30
8422;DHT22;4248;48.196;10.924;2022-12-05T00:25:04;3.50;71.30
8422;DHT22;4248;48.196;10.924;2022-12-05T00:27:30;3.50;72.40
8422;DHT22;4248;48.196;10.924;2022-12-05T00:29:56;3.50;72.40
8422;DHT22;4248;48.196;10.924;2022-12-05T00:32:21;3.50;72.50
8422;DHT22;4248;48.196;10.924;2022-12-05T00:34:47;3.50;71.60
8422;DHT22;4248;48.196;10.924;2022-12-05T00:37:13;3.50;72.40
8422;DHT22;4248;48.196;10.924;2022-12-05T00:39:38;3.50;72.40
8422;DHT22;4248;48.196;10.924;2022-12-05T00:42:04;3.50;72.40
8422;DHT22;4248;48.196;10.924;2022-12-05T00:44:30;3.60;72.50
8422;DHT22;4248;48.196;10.924;2022-12-05T00:46:55;3.60;72.40
8422;DHT22;4248;48.196;10.924;2022-12-05T00:49:21;3.60;72.40
8422;DHT22;4248;48.196;10.924;2022-12-05T00:51:47;3.60;72.40
8422;DHT22;4248;48.196;10.924;2022-12-05T00:54:14;3.50;71.30
8422;DHT22;4248;48.196;10.924;2022-12-05T00:56:41;3.50;72.40
8422;DHT22;4248;48.196;10.924;2022-12-05T00:59:07;3.50;72.30
8422;DHT22;4248;48.196;10.924;2022-12-05T01:01:39;3.60;72.40
8422;DHT22;4248;48.196;10.924;2022-12-05T01:04:09;3.60;71.40
8422;DHT22;4248;48.196;10.924;2022-12-05T01:06:35;3.50;72.40
8422;DHT22;4248;48.196;10.924;2022-12-05T01:09:02;3.50;72.30
8422;DHT22;4248;48.196;10.924;2022-12-05T01:11:28;3.30;72.90
8422;DHT22;4248;48.196;10.924;2022-12-05T01:13:55;3.20;72.50
8422;DHT22;4248;48.196;10.924;2022-12-05T01:16:34;3.20;73.50
8422;DHT22;4248;48.196;10.924;2022-12-05T01:19:03;3.30;73.30
8422;DHT22;4248;48.196;10.924;2022-12-05T01:21:29;3.40;73.00
8422;DHT22;4248;48.196;10.924;2022-12-05T01:23:55;3.50;71.40
8422;DHT22;4248;48.196;10.924;2022-12-05T01:26:22;3.50;72.40
8422;DHT22;4248;48.196;10.924;2022-12-05T01:28:48;3.50;72.40
8422;DHT22;4248;48.196;10.924;2022-12-05T01:31:24;3.50;72.30
8422;DHT22;4248;48.196;10.924;2022-12-05T01:33:51;3.60;72.40
8422;DHT22;4248;48.196;10.924;2022-12-05T01:36:18;3.70;72.50
8422;DHT22;4248;48.196;10.924;2022-12-05T01:38:44;3.60;72.40
8422;DHT22;4248;48.196;10.924;2022-12-05T01:41:16;3.60;72.40
8422;DHT22;4248;48.196;10.924;2022-12-05T01:46:46;3.20;73.30
8422;DHT22;4248;48.196;10.924;2022-12-05T01:51:44;2.90;74.50
8422;DHT22;4248;48.196;10.924;2022-12-05T01:54:11;2.80;75.00
8422;DHT22;4248;48.196;10.924;2022-12-05T01:56:39;2.60;75.30
8422;DHT22;4248;48.196;10.924;2022-12-05T01:59:08;2.70;75.40
8422;DHT22;4248;48.196;10.924;2022-12-05T02:01:35;2.80;75.20
8422;DHT22;4248;48.196;10.924;2022-12-05T02:04:02;3.00;73.00
8422;DHT22;4248;48.196;10.924;2022-12-05T02:06:28;3.00;74.00
8422;DHT22;4248;48.196;10.924;2022-12-05T02:08:54;3.10;73.90
8422;DHT22;4248;48.196;10.924;2022-12-05T02:11:22;3.00;73.80
8422;DHT22;4248;48.196;10.924;2022-12-05T02:14:31;2.90;74.20
8422;DHT22;4248;48.196;10.924;2022-12-05T02:19:54;2.90;74.40
8422;DHT22;4248;48.196;10.924;2022-12-05T02:31:21;2.70;74.70
8422;DHT22;4248;48.196;10.924;2022-12-05T02:34:17;2.60;74.60
8422;DHT22;4248;48.196;10.924;2022-12-05T02:39:57;2.50;75.60
8422;DHT22;4248;48.196;10.924;2022-12-05T02:42:36;2.50;75.80
8422;DHT22;4248;48.196;10.924;2022-12-05T02:45:06;2.60;74.90
8422;DHT22;4248;48.196;10.924;2022-12-05T02:47:37;2.60;75.80
8422;DHT22;4248;48.196;10.924;2022-12-05T02:50:05;2.70;75.20
8422;DHT22;4248;48.196;10.924;2022-12-05T02:52:32;2.80;74.80
8422;DHT22;4248;48.196;10.924;2022-12-05T02:54:59;2.90;74.60
8422;DHT22;4248;48.196;10.924;2022-12-05T02:57:25;3.00;74.30
8422;DHT22;4248;48.196;10.924;2022-12-05T02:59:50;3.00;74.30
8422;DHT22;4248;48.196;10.924;2022-12-05T03:02:26;3.00;74.10
8422;DHT22;4248;48.196;10.924;2022-12-05T03:04:53;3.00;74.40
8422;DHT22;4248;48.196;10.924;2022-12-05T03:07:21;3.00;74.40
8422;DHT22;4248;48.196;10.924;2022-12-05T03:09:58;3.00;74.30
8422;DHT22;4248;48.196;10.924;2022-12-05T03:12:28;3.10;74.20
8422;DHT22;4248;48.196;10.924;2022-12-05T03:17:32;3.20;74.00
8422;DHT22;4248;48.196;10.924;2022-12-05T03:20:10;3.20;73.90
8422;DHT22;4248;48.196;10.924;2022-12-05T03:22:48;3.30;73.70
8422;DHT22;4248;48.196;10.924;2022-12-05T03:25:16;3.30;72.70
8422;DHT22;4248;48.196;10.924;2022-12-05T03:27:52;3.50;73.80
8422;DHT22;4248;48.196;10.924;2022-12-05T03:30:22;3.40;73.50
8422;DHT22;4248;48.196;10.924;2022-12-05T03:38:15;3.30;74.00
8422;DHT22;4248;48.196;10.924;2022-12-05T03:43:24;3.40;74.10
8422;DHT22;4248;48.196;10.924;2022-12-05T03:45:56;3.40;73.10
8422;DHT22;4248;48.196;10.924;2022-12-05T03:48:35;3.50;73.90
8422;DHT22;4248;48.196;10.924;2022-12-05T03:51:05;3.50;73.80
8422;DHT22;4248;48.196;10.924;2022-12-05T03:53:48;3.60;73.70
8422;DHT22;4248;48.196;10.924;2022-12-05T03:56:32;3.60;72.40
8422;DHT22;4248;48.196;10.924;2022-12-05T03:59:18;3.60;73.50
8422;DHT22;4248;48.196;10.924;2022-12-05T04:01:46;3.60;73.40
8422;DHT22;4248;48.196;10.924;2022-12-05T04:04:25;3.70;73.40
8422;DHT22;4248;48.196;10.924;2022-12-05T04:06:55;3.80;73.20
8422;DHT22;4248;48.196;10.924;2022-12-05T04:09:26;3.80;72.90
8422;DHT22;4248;48.196;10.924;2022-12-05T04:12:00;3.80;73.00
8422;DHT22;4248;48.196;10.924;2022-12-05T04:14:49;3.80;72.90
8422;DHT22;4248;48.196;10.924;2022-12-05T04:20:10;3.90;73.10
8422;DHT22;4248;48.196;10.924;2022-12-05T04:22:55;3.90;72.80
8422;DHT22;4248;48.196;10.924;2022-12-05T04:25:24;3.90;71.70
8422;DHT22;4248;48.196;10.924;2022-12-05T04:31:14;4.00;72.80
8422;DHT22;4248;48.196;10.924;2022-12-05T04:33:54;4.00;72.80
8422;DHT22;4248;48.196;10.924;2022-12-05T04:36:43;4.00;71.70
8422;DHT22;4248;48.196;10.924;2022-12-05T04:42:03;4.20;73.00
8422;DHT22;4248;48.196;10.924;2022-12-05T04:44:32;4.20;73.00
8422;DHT22;4248;48.196;10.924;2022-12-05T04:47:02;4.20;73.00
8422;DHT22;4248;48.196;10.924;2022-12-05T04:49:31;4.20;73.00
8422;DHT22;4248;48.196;10.924;2022-12-05T04:52:02;4.30;73.10
8422;DHT22;4248;48.196;10.924;2022-12-05T04:57:26;4.50;73.20
8422;DHT22;4248;48.196;10.924;2022-12-05T04:59:53;4.70;73.40
8422;DHT22;4248;48.196;10.924;2022-12-05T05:02:30;4.80;73.50
8422;DHT22;4248;48.196;10.924;2022-12-05T05:04:59;4.80;73.50
8422;DHT22;4248;48.196;10.924;2022-12-05T05:07:25;4.80;73.50
8422;DHT22;4248;48.196;10.924;2022-12-05T05:09:51;4.80;73.50
8422;DHT22;4248;48.196;10.924;2022-12-05T05:12:17;4.80;73.50
8422;DHT22;4248;48.196;10.924;2022-12-05T05:14:42;4.80;73.50
8422;DHT22;4248;48.196;10.924;2022-12-05T05:17:08;4.70;73.80
8422;DHT22;4248;48.196;10.924;2022-12-05T05:19:34;4.50;73.20
8422;DHT22;4248;48.196;10.924;2022-12-05T05:21:59;4.30;74.00
8422;DHT22;4248;48.196;10.924;2022-12-05T05:24:25;4.30;73.00
8422;DHT22;4248;48.196;10.924;2022-12-05T05:26:51;4.30;74.10
8422;DHT22;4248;48.196;10.924;2022-12-05T05:29:17;4.30;73.80
8422;DHT22;4248;48.196;10.924;2022-12-05T05:31:43;4.30;73.30
8422;DHT22;4248;48.196;10.924;2022-12-05T05:34:13;4.50;72.20
8422;DHT22;4248;48.196;10.924;2022-12-05T05:36:41;4.50;73.30
8422;DHT22;4248;48.196;10.924;2022-12-05T05:39:11;4.50;73.30
8422;DHT22;4248;48.196;10.924;2022-12-05T05:41:37;4.50;73.20
8422;DHT22;4248;48.196;10.924;2022-12-05T05:44:03;4.60;72.30
8422;DHT22;4248;48.196;10.924;2022-12-05T05:46:32;4.60;73.40
8422;DHT22;4248;48.196;10.924;2022-12-05T05:48:59;4.60;73.30
8422;DHT22;4248;48.196;10.924;2022-12-05T05:51:25;4.60;73.40
8422;DHT22;4248;48.196;10.924;2022-12-05T05:53:53;4.60;73.30
8422;DHT22;4248;48.196;10.924;2022-12-05T05:56:19;4.60;73.30
8422;DHT22;4248;48.196;10.924;2022-12-05T05:58:46;4.60;74.40
8422;DHT22;4248;48.196;10.924;2022-12-05T06:01:17;4.70;72.90
8422;DHT22;4248;48.196;10.924;2022-12-05T06:03:44;4.70;72.50
8422;DHT22;4248;48.196;10.924;2022-12-05T06:06:12;4.70;71.70
8422;DHT22;4248;48.196;10.924;2022-12-05T06:08:40;4.70;72.90
8422;DHT22;4248;48.196;10.924;2022-12-05T06:11:18;4.70;73.00
8422;DHT22;4248;48.196;10.924;2022-12-05T06:13:45;4.70;73.10
8422;DHT22;4248;48.196;10.924;2022-12-05T06:16:13;4.70;72.20
8422;DHT22;4248;48.196;10.924;2022-12-05T06:18:39;4.70;73.10
8422;DHT22;4248;48.196;10.924;2022-12-05T06:21:05;4.70;73.30
8422;DHT22;4248;48.196;10.924;2022-12-05T06:23:34;4.70;73.30
8422;DHT22;4248;48.196;10.924;2022-12-05T06:26:00;4.70;72.30
8422;DHT22;4248;48.196;10.924;2022-12-05T06:28:26;4.70;73.50
8422;DHT22;4248;48.196;10.924;2022-12-05T06:30:52;4.70;73.40
8422;DHT22;4248;48.196;10.924;2022-12-05T06:33:19;4.70;73.40
8422;DHT22;4248;48.196;10.924;2022-12-05T06:35:44;4.70;72.30
8422;DHT22;4248;48.196;10.924;2022-12-05T06:38:11;4.70;73.40
8422;DHT22;4248;48.196;10.924;2022-12-05T06:40:41;4.70;73.00
8422;DHT22;4248;48.196;10.924;2022-12-05T06:43:08;4.80;72.70
8422;DHT22;4248;48.196;10.924;2022-12-05T06:45:36;4.80;72.30
8422;DHT22;4248;48.196;10.924;2022-12-05T06:48:01;4.80;72.20
8422;DHT22;4248;48.196;10.924;2022-12-05T06:50:27;4.70;72.10
8422;DHT22;4248;48.196;10.924;2022-12-05T06:52:53;4.70;72.20
8422;DHT22;4248;48.196;10.924;2022-12-05T06:55:18;4.60;71.30
8422;DHT22;4248;48.196;10.924;2022-12-05T06:57:44;4.50;72.50
8422;DHT22;4248;48.196;10.924;2022-12-05T07:00:10;4.50;73.00
8422;DHT22;4248;48.196;10.924;2022-12-05T07:02:54;4.50;73.20
8422;DHT22;4248;48.196;10.924;2022-12-05T07:05:20;4.40;72.10
8422;DHT22;4248;48.196;10.924;2022-12-05T07:07:46;4.40;73.20
8422;DHT22;4248;48.196;10.924;2022-12-05T07:10:12;4.50;73.20
8422;DHT22;4248;48.196;10.924;2022-12-05T07:12:37;4.60;73.40
8422;DHT22;4248;48.196;10.924;2022-12-05T07:15:03;4.60;73.00
8422;DHT22;4248;48.196;10.924;2022-12-05T07:17:29;4.70;72.30
8422;DHT22;4248;48.196;10.924;2022-12-05T07:19:55;4.80;72.20
8422;DHT22;4248;48.196;10.924;2022-12-05T07:22:22;4.80;72.00
8422;DHT22;4248;48.196;10.924;2022-12-05T07:24:50;4.90;71.00
8422;DHT22;4248;48.196;10.924;2022-12-05T07:27:16;4.90;72.00
8422;DHT22;4248;48.196;10.924;2022-12-05T07:29:42;4.90;72.00
8422;DHT22;4248;48.196;10.924;2022-12-05T07:32:08;4.90;71.80
8422;DHT22;4248;48.196;10.924;2022-12-05T07:34:33;5.00;71.60
8422;DHT22;4248;48.196;10.924;2022-12-05T07:36:59;5.00;71.40
8422;DHT22;4248;48.196;10.924;2022-12-05T07:39:26;5.00;71.40
8422;DHT22;4248;48.196;10.924;2022-12-05T07:41:52;5.10;71.60
8422;DHT22;4248;48.196;10.924;2022-12-05T07:44:17;5.20;70.70
8422;DHT22;4248;48.196;10.924;2022-12-05T07:46:43;5.20;71.70
8422;DHT22;4248;48.196;10.924;2022-12-05T07:49:09;5.30;71.50
8422;DHT22;4248;48.196;10.924;2022-12-05T07:51:35;5.40;71.20
8422;DHT22;4248;48.196;10.924;2022-12-05T07:54:01;5.40;70.00
8422;DHT22;4248;48.196;10.924;2022-12-05T07:56:27;5.40;71.00
8422;DHT22;4248;48.196;10.924;2022-12-05T07:58:53;5.50;70.60
8422;DHT22;4248;48.196;10.924;2022-12-05T08:01:29;5.50;71.00
8422;DHT22;4248;48.196;10.924;2022-12-05T08:03:56;5.60;70.00
8422;DHT22;4248;48.196;10.924;2022-12-05T08:06:24;5.60;71.00
8422;DHT22;4248;48.196;10.924;2022-12-05T08:08:50;5.60;70.90
8422;DHT22;4248;48.196;10.924;2022-12-05T08:11:22;5.70;70.60
8422;DHT22;4248;48.196;10.924;2022-12-05T08:13:48;5.80;70.40
8422;DHT22;4248;48.196;10.924;2022-12-05T08:16:20;5.70;69.20
8422;DHT22;4248;48.196;10.924;2022-12-05T08:18:47;5.80;70.00
8422;DHT22;4248;48.196;10.924;2022-12-05T08:21:17;5.80;70.20
8422;DHT22;4248;48.196;10.924;2022-12-05T08:23:44;5.80;69.90
8422;DHT22;4248;48.196;10.924;2022-12-05T08:26:11;5.90;68.90
8422;DHT22;4248;48.196;10.924;2022-12-05T08:28:38;5.90;70.00
8422;DHT22;4248;48.196;10.924;2022-12-05T08:31:14;5.90;69.50
8422;DHT22;4248;48.196;10.924;2022-12-05T08:33:41;6.00;69.80
8422;DHT22;4248;48.196;10.924;2022-12-05T08:36:09;6.10;68.70
8422;DHT22;4248;48.196;10.924;2022-12-05T08:38:35;6.10;69.40
8422;DHT22;4248;48.196;10.924;2022-12-05T08:41:07;6.10;69.40
8422;DHT22;4248;48.196;10.924;2022-12-05T08:43:33;6.10;68.90
8422;DHT22;4248;48.196;10.924;2022-12-05T08:45:59;6.10;68.20
8422;DHT22;4248;48.196;10.924;2022-12-05T08:48:26;6.10;69.20
8422;DHT22;4248;48.196;10.924;2022-12-05T08:50:53;6.20;69.10
8422;DHT22;4248;48.196;10.924;2022-12-05T08:53:18;6.20;68.90
8422;DHT22;4248;48.196;10.924;2022-12-05T08:55:44;6.30;68.80
8422;DHT22;4248;48.196;10.924;2022-12-05T08:58:11;6.30;68.90
8422;DHT22;4248;48.196;10.924;2022-12-05T09:00:37;6.40;69.00
8422;DHT22;4248;48.196;10.924;2022-12-05T09:03:03;6.40;69.10
8422;DHT22;4248;48.196;10.924;2022-12-05T09:05:29;6.40;69.20
8422;DHT22;4248;48.196;10.924;2022-12-05T09:07:55;6.40;69.50
8422;DHT22;4248;48.196;10.924;2022-12-05T09:10:21;6.40;69.50
8422;DHT22;4248;48.196;10.924;2022-12-05T09:12:47;6.40;69.50
8422;DHT22;4248;48.196;10.924;2022-12-05T09:15:15;6.50;68.10
8422;DHT22;4248;48.196;10.924;2022-12-05T09:17:41;6.50;69.00
8422;DHT22;4248;48.196;10.924;2022-12-05T09:20:07;6.50;69.10
8422;DHT22;4248;48.196;10.924;2022-12-05T09:22:34;6.50;69.10
8422;DHT22;4248;48.196;10.924;2022-12-05T09:24:59;6.50;68.00
8422;DHT22;4248;48.196;10.924;2022-12-05T09:27:27;6.50;69.00
8422;DHT22;4248;48.196;10.924;2022-12-05T09:29:52;6.60;69.10
8422;DHT22;4248;48.196;10.924;2022-12-05T09:32:18;6.60;69.10
8422;DHT22;4248;48.196;10.924;2022-12-05T09:34:44;6.60;68.80
8422;DHT22;4248;48.196;10.924;2022-12-05T09:37:09;6.50;68.60
8422;DHT22;4248;48.196;10.924;2022-12-05T09:39:35;6.50;68.80
8422;DHT22;4248;48.196;10.924;2022-12-05T09:42:32;6.50;68.60
8422;DHT22;4248;48.196;10.924;2022-12-05T09:47:55;6.50;68.70
8422;DHT22;4248;48.196;10.924;2022-12-05T09:51:03;6.50;68.80
8422;DHT22;4248;48.196;10.924;2022-12-05T09:53:33;6.50;68.40
8422;DHT22;4248;48.196;10.924;2022-12-05T09:56:04;6.50;67.20
8422;DHT22;4248;48.196;10.924;2022-12-05T09:58:40;6.60;68.30
8422;DHT22;4248;48.196;10.924;2022-12-05T10:20:50;7.00;67.50
8422;DHT22;4248;48.196;10.924;2022-12-05T10:25:55;7.00;66.30
8422;DHT22;4248;48.196;10.924;2022-12-05T10:31:29;7.00;67.40
8422;DHT22;4248;48.196;10.924;2022-12-05T10:34:28;7.20;66.40
8422;DHT22;4248;48.196;10.924;2022-12-05T10:39:26;7.30;67.00
8422;DHT22;4248;48.196;10.924;2022-12-05T10:41:52;7.30;67.00
8422;DHT22;4248;48.196;10.924;2022-12-05T10:44:18;7.40;66.90
8422;DHT22;4248;48.196;10.924;2022-12-05T10:46:44;7.40;66.70
8422;DHT22;4248;48.196;10.924;2022-12-05T10:49:11;7.50;66.60
8422;DHT22;4248;48.196;10.924;2022-12-05T10:51:37;7.50;66.70
8422;DHT22;4248;48.196;10.924;2022-12-05T10:54:19;7.30;66.40
8422;DHT22;4248;48.196;10.924;2022-12-05T10:56:48;7.30;67.50
8422;DHT22;4248;48.196;10.924;2022-12-05T10:59:20;7.30;67.60
8422;DHT22;4248;48.196;10.924;2022-12-05T11:01:57;7.20;67.90
8422;DHT22;4248;48.196;10.924;2022-12-05T11:04:41;7.20;68.20
8422;DHT22;4248;48.196;10.924;2022-12-05T11:09:57;7.20;68.40
8422;DHT22;4248;48.196;10.924;2022-12-05T11:12:37;7.20;68.40
8422;DHT22;4248;48.196;10.924;2022-12-05T11:17:47;7.20;68.30
8422;DHT22;4248;48.196;10.924;2022-12-05T11:22:52;7.20;68.50
8422;DHT22;4248;48.196;10.924;2022-12-05T11:25:31;7.20;67.60
8422;DHT22;4248;48.196;10.924;2022-12-05T11:28:00;7.20;68.50
8422;DHT22;4248;48.196;10.924;2022-12-05T11:30:58;7.10;68.70
8422;DHT22;4248;48.196;10.924;2022-12-05T11:33:27;7.10;68.70
8422;DHT22;4248;48.196;10.924;2022-12-05T11:36:05;6.90;67.70
8422;DHT22;4248;48.196;10.924;2022-12-05T11:38:34;6.80;68.80
8422;DHT22;4248;48.196;10.924;2022-12-05T11:41:33;6.80;69.30
8422;DHT22;4248;48.196;10.924;2022-12-05T12:10:08;6.50;68.90
8422;DHT22;4248;48.196;10.924;2022-12-05T12:21:16;6.20;68.80
8422;DHT22;4248;48.196;10.924;2022-12-05T12:29:30;6.20;68.80
8422;DHT22;4248;48.196;10.924;2022-12-05T12:34:44;6.20;68.70
8422;DHT22;4248;48.196;10.924;2022-12-05T12:37:30;6.30;68.30
8422;DHT22;4248;48.196;10.924;2022-12-05T12:40:00;6.40;68.00
8422;DHT22;4248;48.196;10.924;2022-12-05T12:48:22;6.20;68.20
8422;DHT22;4248;48.196;10.924;2022-12-05T12:50:52;6.20;68.60
8422;DHT22;4248;48.196;10.924;2022-12-05T12:59:37;6.30;68.50
8422;DHT22;4248;48.196;10.924;2022-12-05T13:02:32;6.10;68.50
8422;DHT22;4248;48.196;10.924;2022-12-05T13:05:18;6.20;68.30
8422;DHT22;4248;48.196;10.924;2022-12-05T13:08:19;6.30;68.30
8422;DHT22;4248;48.196;10.924;2022-12-05T13:10:47;6.50;68.70
8422;DHT22;4248;48.196;10.924;2022-12-05T13:13:35;6.60;69.00
8422;DHT22;4248;48.196;10.924;2022-12-05T13:16:05;6.70;67.80
8422;DHT22;4248;48.196;10.924;2022-12-05T13:18:32;6.70;68.90
8422;DHT22;4248;48.196;10.924;2022-12-05T13:21:01;6.70;68.90
8422;DHT22;4248;48.196;10.924;2022-12-05T13:23:35;6.80;68.80
8422;DHT22;4248;48.196;10.924;2022-12-05T13:26:10;6.70;67.80
8422;DHT22;4248;48.196;10.924;2022-12-05T13:28:54;6.70;69.00
8422;DHT22;4248;48.196;10.924;2022-12-05T13:31:41;6.80;68.90
8422;DHT22;4248;48.196;10.924;2022-12-05T13:36:56;6.80;69.20
8422;DHT22;4248;48.196;10.924;2022-12-05T13:39:48;6.90;69.20
8422;DHT22;4248;48.196;10.924;2022-12-05T13:42:33;6.90;69.30
8422;DHT22;4248;48.196;10.924;2022-12-05T13:52:55;6.90;69.30
8422;DHT22;4248;48.196;10.924;2022-12-05T13:57:53;6.80;69.20
8422;DHT22;4248;48.196;10.924;2022-12-05T14:00:21;6.70;69.40
8422;DHT22;4248;48.196;10.924;2022-12-05T14:02:56;6.60;69.40
8422;DHT22;4248;48.196;10.924;2022-12-05T14:07:50;6.50;69.70
8422;DHT22;4248;48.196;10.924;2022-12-05T14:12:59;6.50;69.40
8422;DHT22;4248;48.196;10.924;2022-12-05T14:15:35;6.50;67.90
8422;DHT22;4248;48.196;10.924;2022-12-05T14:18:18;6.40;68.70
8422;DHT22;4248;48.196;10.924;2022-12-05T14:29:36;6.30;68.70
8422;DHT22;4248;48.196;10.924;2022-12-05T14:32:23;6.20;69.00
8422;DHT22;4248;48.196;10.924;2022-12-05T14:35:23;6.20;69.20
8422;DHT22;4248;48.196;10.924;2022-12-05T14:37:54;6.20;69.40
8422;DHT22;4248;48.196;10.924;2022-12-05T14:42:58;6.20;68.90
8422;DHT22;4248;48.196;10.924;2022-12-05T14:45:39;6.30;67.60
8422;DHT22;4248;48.196;10.924;2022-12-05T14:50:48;6.20;68.70
8422;DHT22;4248;48.196;10.924;2022-12-05T15:01:21;6.10;68.90
8422;DHT22;4248;48.196;10.924;2022-12-05T15:04:02;6.10;69.00
8422;DHT22;4248;48.196;10.924;2022-12-05T15:06:32;6.10;69.10
8422;DHT22;4248;48.196;10.924;2022-12-05T15:09:02;6.10;69.30
8422;DHT22;4248;48.196;10.924;2022-12-05T15:11:31;6.10;69.40
8422;DHT22;4248;48.196;10.924;2022-12-05T15:14:21;6.10;68.60
8422;DHT22;4248;48.196;10.924;2022-12-05T15:16:49;6.10;68.60
8422;DHT22;4248;48.196;10.924;2022-12-05T15:19:22;6.10;69.50
8422;DHT22;4248;48.196;10.924;2022-12-05T15:21:56;6.10;69.50
8422;DHT22;4248;48.196;10.924;2022-12-05T15:24:23;6.10;69.70
8422;DHT22;4248;48.196;10.924;2022-12-05T15:26:50;6.10;69.70
8422;DHT22;4248;48.196;10.924;2022-12-05T15:31:58;6.10;69.50
8422;DHT22;4248;48.196;10.924;2022-12-05T15:34:26;6.10;68.60
8422;DHT22;4248;48.196;10.924;2022-12-05T15:37:14;6.10;69.70
8422;DHT22;4248;48.196;10.924;2022-12-05T15:42:18;6.10;69.70
8422;DHT22;4248;48.196;10.924;2022-12-05T15:44:44;6.10;69.60
8422;DHT22;4248;48.196;10.924;2022-12-05T15:47:24;6.00;69.80
8422;DHT22;4248;48.196;10.924;2022-12-05T15:49:51;6.00;69.80
8422;DHT22;4248;48.196;10.924;2022-12-05T15:55:00;6.00;69.60
8422;DHT22;4248;48.196;10.924;2022-12-05T15:57:36;6.10;69.50
8422;DHT22;4248;48.196;10.924;2022-12-05T16:00:11;6.00;69.40
8422;DHT22;4248;48.196;10.924;2022-12-05T16:05:23;6.00;69.60
8422;DHT22;4248;48.196;10.924;2022-12-05T16:07:50;6.00;69.60
8422;DHT22;4248;48.196;10.924;2022-12-05T16:10:17;6.00;69.80
8422;DHT22;4248;48.196;10.924;2022-12-05T16:12:46;6.00;69.90
8422;DHT22;4248;48.196;10.924;2022-12-05T16:15:23;5.90;69.00
8422;DHT22;4248;48.196;10.924;2022-12-05T16:17:57;5.90;70.00
8422;DHT22;4248;48.196;10.924;2022-12-05T16:20:42;5.90;70.00
8422;DHT22;4248;48.196;10.924;2022-12-05T16:23:28;5.90;70.40
8422;DHT22;4248;48.196;10.924;2022-12-05T16:26:19;5.70;69.70
8422;DHT22;4248;48.196;10.924;2022-12-05T16:29:01;5.60;71.10
8422;DHT22;4248;48.196;10.924;2022-12-05T16:31:28;5.50;71.30
8422;DHT22;4248;48.196;10.924;2022-12-05T16:34:06;5.30;70.60
8422;DHT22;4248;48.196;10.924;2022-12-05T16:36:33;5.30;71.70
8422;DHT22;4248;48.196;10.924;2022-12-05T16:39:04;5.20;71.80
8422;DHT22;4248;48.196;10.924;2022-12-05T16:41:35;5.10;72.00
8422;DHT22;4248;48.196;10.924;2022-12-05T16:44:01;5.10;71.40
8422;DHT22;4248;48.196;10.924;2022-12-05T16:52:12;4.90;71.90
8422;DHT22;4248;48.196;10.924;2022-12-05T16:54:39;4.80;70.80
8422;DHT22;4248;48.196;10.924;2022-12-05T16:57:05;4.80;71.80
8422;DHT22;4248;48.196;10.924;2022-12-05T16:59:34;4.70;71.80
8422;DHT22;4248;48.196;10.924;2022-12-05T17:02:03;4.70;71.80
8422;DHT22;4248;48.196;10.924;2022-12-05T17:04:28;4.60;71.70
8422;DHT22;4248;48.196;10.924;2022-12-05T17:06:55;4.30;71.30
8422;DHT22;4248;48.196;10.924;2022-12-05T17:09:22;4.60;71.40
8422;DHT22;4248;48.196;10.924;2022-12-05T17:11:51;4.60;71.30
8422;DHT22;4248;48.196;10.924;2022-12-05T17:14:17;4.60;71.30
8422;DHT22;4248;48.196;10.924;2022-12-05T17:16:44;4.60;71.20
8422;DHT22;4248;48.196;10.924;2022-12-05T17:19:10;4.60;71.20
8422;DHT22;4248;48.196;10.924;2022-12-05T17:21:37;4.50;71.10
8422;DHT22;4248;48.196;10.924;2022-12-05T17:24:04;4.40;70.20
8422;DHT22;4248;48.196;10.924;2022-12-05T17:26:29;4.40;71.10
8422;DHT22;4248;48.196;10.924;2022-12-05T17:28:55;4.40;71.10
8422;DHT22;4248;48.196;10.924;2022-12-05T17:31:23;4.40;72.30
8422;DHT22;4248;48.196;10.924;2022-12-05T17:33:51;4.40;70.90
8422;DHT22;4248;48.196;10.924;2022-12-05T17:36:18;4.50;69.80
8422;DHT22;4248;48.196;10.924;2022-12-05T17:38:48;4.50;70.60
8422;DHT22;4248;48.196;10.924;2022-12-05T17:41:16;4.60;70.50
8422;DHT22;4248;48.196;10.924;2022-12-05T17:43:42;4.60;70.30
8422;DHT22;4248;48.196;10.924;2022-12-05T17:46:08;4.60;69.20
8422;DHT22;4248;48.196;10.924;2022-12-05T17:48:34;4.60;70.30
8422;DHT22;4248;48.196;10.924;2022-12-05T17:51:00;4.50;70.20
8422;DHT22;4248;48.196;10.924;2022-12-05T17:53:27;4.50;70.40
8422;DHT22;4248;48.196;10.924;2022-12-05T17:55:53;4.40;70.70
8422;DHT22;4248;48.196;10.924;2022-12-05T17:58:18;4.30;70.90
8422;DHT22;4248;48.196;10.924;2022-12-05T18:00:45;4.20;71.40
8422;DHT22;4248;48.196;10.924;2022-12-05T18:03:16;4.20;71.70
8422;DHT22;4248;48.196;10.924;2022-12-05T18:05:42;4.10;70.60
8422;DHT22;4248;48.196;10.924;2022-12-05T18:08:09;4.10;71.60
8422;DHT22;4248;48.196;10.924;2022-12-05T18:10:35;4.10;71.50
8422;DHT22;4248;48.196;10.924;2022-12-05T18:13:00;4.10;71.50
8422;DHT22;4248;48.196;10.924;2022-12-05T18:15:26;4.10;71.40
8422;DHT22;4248;48.196;10.924;2022-12-05T18:17:52;4.00;71.30
8422;DHT22;4248;48.196;10.924;2022-12-05T18:20:19;4.00;71.40
8422;DHT22;4248;48.196;10.924;2022-12-05T18:22:45;4.00;71.40
8422;DHT22;4248;48.196;10.924;2022-12-05T18:25:11;4.00;70.40
8422;DHT22;4248;48.196;10.924;2022-12-05T18:27:37;4.00;71.50
8422;DHT22;4248;48.196;10.924;2022-12-05T18:30:04;4.00;71.50
8422;DHT22;4248;48.196;10.924;2022-12-05T18:32:30;4.00;71.60
8422;DHT22;4248;48.196;10.924;2022-12-05T18:34:56;4.00;70.50
8422;DHT22;4248;48.196;10.924;2022-12-05T18:37:24;4.10;71.70
8422;DHT22;4248;48.196;10.924;2022-12-05T18:39:49;4.10;71.40
8422;DHT22;4248;48.196;10.924;2022-12-05T18:42:15;4.10;71.30
8422;DHT22;4248;48.196;10.924;2022-12-05T18:44:41;4.10;71.30
8422;DHT22;4248;48.196;10.924;2022-12-05T18:47:07;4.10;71.40
8422;DHT22;4248;48.196;10.924;2022-12-05T18:49:33;4.10;71.30
8422;DHT22;4248;48.196;10.924;2022-12-05T18:51:58;4.10;71.30
8422;DHT22;4248;48.196;10.924;2022-12-05T18:54:24;4.10;71.30
8422;DHT22;4248;48.196;10.924;2022-12-05T18:56:50;4.10;71.40
8422;DHT22;4248;48.196;10.924;2022-12-05T18:59:19;4.10;71.30
8422;DHT22;4248;48.196;10.924;2022-12-05T19:01:45;4.10;71.20
8422;DHT22;4248;48.196;10.924;2022-12-05T19:04:14;4.20;70.10
8422;DHT22;4248;48.196;10.924;2022-12-05T19:06:44;4.20;71.10
8422;DHT22;4248;48.196;10.924;2022-12-05T19:09:15;4.30;71.10
8422;DHT22;4248;48.196;10.924;2022-12-05T19:11:43;4.30;71.10
8422;DHT22;4248;48.196;10.924;2022-12-05T19:14:10;4.30;70.10
8422;DHT22;4248;48.196;10.924;2022-12-05T19:16:36;4.20;71.00
8422;DHT22;4248;48.196;10.924;2022-12-05T19:19:04;4.30;72.10
8422;DHT22;4248;48.196;10.924;2022-12-05T19:21:31;4.20;71.00
8422;DHT22;4248;48.196;10.924;2022-12-05T19:23:58;4.30;69.90
8422;DHT22;4248;48.196;10.924;2022-12-05T19:26:24;4.20;70.80
8422;DHT22;4248;48.196;10.924;2022-12-05T19:28:50;4.20;70.90
8422;DHT22;4248;48.196;10.924;2022-12-05T19:31:19;4.30;71.00
8422;DHT22;4248;48.196;10.924;2022-12-05T19:33:46;4.30;71.00